createdAt,value
2024-02-11T00:02:13.985Z,9.27
2024-02-11T00:04:42.598Z,9.60
2024-02-11T00:07:09.577Z,9.02
2024-02-11T00:09:36.252Z,8.87
2024-02-11T00:12:02.762Z,9.07
2024-02-11T00:14:29.260Z,9.52
2024-02-11T00:17:01.332Z,9.95
2024-02-11T00:19:28.647Z,10.13
2024-02-11T00:21:55.191Z,9.50
2024-02-11T00:24:24.769Z,11.15
2024-02-11T00:26:51.331Z,8.55
2024-02-11T00:29:19.049Z,10.48
2024-02-11T00:31:45.684Z,10.52
2024-02-11T00:34:12.415Z,11.03
2024-02-11T00:36:42.069Z,9.20
2024-02-11T00:39:08.794Z,10.35
2024-02-11T00:41:40.437Z,9.82
2024-02-11T00:44:09.956Z,18.48
2024-02-11T00:46:36.692Z,9.83
2024-02-11T00:49:04.961Z,10.98
2024-02-11T00:51:31.789Z,8.93
2024-02-11T00:53:58.791Z,10.70
2024-02-11T00:56:25.383Z,10.05
2024-02-11T00:58:52.002Z,10.77
2024-02-11T01:01:18.583Z,10.10
2024-02-11T01:03:45.104Z,10.13
2024-02-11T01:06:14.570Z,11.70
2024-02-11T01:08:41.089Z,12.02
2024-02-11T01:11:09.701Z,10.43
2024-02-11T01:13:36.264Z,10.88
2024-02-11T01:16:02.760Z,11.15
2024-02-11T01:18:29.278Z,11.10
2024-02-11T01:20:56.714Z,11.20
2024-02-11T01:23:23.208Z,12.53
2024-02-11T01:25:51.027Z,11.48
2024-02-11T01:28:17.504Z,10.10
2024-02-11T01:30:46.486Z,10.15
2024-02-11T01:33:13.165Z,11.57
2024-02-11T01:35:43.011Z,10.60
2024-02-11T01:38:11.070Z,9.38
2024-02-11T01:40:37.706Z,10.63
2024-02-11T01:43:08.930Z,9.02
2024-02-11T01:45:38.298Z,9.23
2024-02-11T01:48:05.796Z,9.03
2024-02-11T01:50:37.407Z,10.43
2024-02-11T01:53:05.947Z,10.80
2024-02-11T01:55:34.406Z,8.93
2024-02-11T01:58:02.101Z,10.90
2024-02-11T02:00:29.149Z,8.83
2024-02-11T02:02:56.670Z,9.70
2024-02-11T02:05:23.421Z,10.15
2024-02-11T02:07:54.582Z,10.68
2024-02-11T02:10:21.566Z,9.32
2024-02-11T02:12:48.092Z,9.17
2024-02-11T02:15:14.786Z,11.18
2024-02-11T02:17:46.016Z,10.82
2024-02-11T02:20:13.826Z,9.02
2024-02-11T02:22:42.765Z,10.48
2024-02-11T02:25:09.641Z,9.30
2024-02-11T02:27:39.300Z,11.27
2024-02-11T02:30:06.835Z,9.57
2024-02-11T02:32:33.381Z,9.93
2024-02-11T02:35:00.143Z,9.02
2024-02-11T02:37:26.725Z,9.03
2024-02-11T02:39:53.253Z,10.60
2024-02-11T02:42:21.332Z,8.55
2024-02-11T02:44:48.110Z,8.98
2024-02-11T02:47:14.986Z,11.50
2024-02-11T02:49:43.999Z,11.10
2024-02-11T02:52:10.582Z,11.45
2024-02-11T02:54:37.014Z,8.73
2024-02-11T02:57:03.717Z,9.80
2024-02-11T02:59:30.174Z,10.68
2024-02-11T03:02:03.162Z,10.87
2024-02-11T03:04:29.948Z,9.88
2024-02-11T03:06:57.071Z,9.80
2024-02-11T03:09:25.429Z,9.57
2024-02-11T03:11:51.950Z,10.00
2024-02-11T03:14:19.776Z,9.60
2024-02-11T03:16:48.168Z,8.35
2024-02-11T03:19:16.068Z,9.95
2024-02-11T03:21:42.999Z,9.32
2024-02-11T03:24:09.538Z,9.73
2024-02-11T03:26:36.043Z,9.57
2024-02-11T03:29:02.734Z,8.15
2024-02-11T03:31:29.511Z,9.43
2024-02-11T03:33:56.340Z,10.23
2024-02-11T03:36:22.932Z,9.13
2024-02-11T03:38:49.370Z,10.80
2024-02-11T03:41:17.686Z,9.25
2024-02-11T03:43:44.286Z,10.88
2024-02-11T03:46:10.923Z,10.05
2024-02-11T03:48:37.614Z,9.32
2024-02-11T03:51:05.333Z,11.10
2024-02-11T03:53:32.337Z,9.10
2024-02-11T03:55:58.872Z,11.60
2024-02-11T03:58:25.365Z,10.27
2024-02-11T04:00:52.166Z,8.85
2024-02-11T04:03:21.723Z,9.53
2024-02-11T04:05:50.080Z,10.10
2024-02-11T04:08:17.099Z,10.02
2024-02-11T04:10:43.946Z,9.95
2024-02-11T04:13:10.805Z,11.30
2024-02-11T04:15:39.095Z,10.03
2024-02-11T04:18:11.440Z,10.32
2024-02-11T04:20:39.153Z,10.18
2024-02-11T04:23:09.289Z,9.88
2024-02-11T04:25:37.440Z,10.90
2024-02-11T04:28:09.218Z,10.90
2024-02-11T04:30:39.734Z,12.02
2024-02-11T04:33:08.297Z,10.95
2024-02-11T04:35:36.285Z,10.02
2024-02-11T04:38:09.289Z,10.77
2024-02-11T04:40:36.004Z,10.07
2024-02-11T04:43:03.581Z,9.90
2024-02-11T04:45:30.093Z,9.25
2024-02-11T04:48:00.261Z,11.48
2024-02-11T04:50:29.375Z,11.60
2024-02-11T04:52:58.231Z,11.30
2024-02-11T04:55:28.691Z,9.05
2024-02-11T04:58:05.927Z,9.65
2024-02-11T05:00:35.243Z,9.50
2024-02-11T05:03:07.871Z,9.57
2024-02-11T05:05:38.759Z,11.70
2024-02-11T05:08:09.179Z,9.35
2024-02-11T05:10:40.946Z,9.40
2024-02-11T05:13:09.061Z,11.75
2024-02-11T05:15:41.596Z,8.93
2024-02-11T05:18:12.747Z,8.83
2024-02-11T05:20:40.346Z,8.20
2024-02-11T05:23:10.493Z,10.20
2024-02-11T05:25:39.704Z,10.32
2024-02-11T05:28:10.163Z,10.20
2024-02-11T05:30:39.573Z,10.33
2024-02-11T05:33:09.719Z,9.93
2024-02-11T05:35:38.366Z,9.02
2024-02-11T05:38:07.291Z,11.27
2024-02-11T05:40:38.169Z,9.90
2024-02-11T05:43:07.580Z,9.30
2024-02-11T05:45:34.235Z,11.90
2024-02-11T05:48:00.816Z,9.35
2024-02-11T05:50:27.909Z,11.18
2024-02-11T05:52:55.888Z,11.48
2024-02-11T05:55:23.361Z,10.97
2024-02-11T05:57:51.453Z,11.32
2024-02-11T06:00:23.200Z,11.52
2024-02-11T06:02:51.168Z,11.02
2024-02-11T06:05:19.027Z,11.02
2024-02-11T06:07:47.350Z,11.10
2024-02-11T06:10:14.837Z,13.05
2024-02-11T06:12:42.172Z,12.15
2024-02-11T06:15:10.595Z,10.98
2024-02-11T06:17:41.612Z,10.25
2024-02-11T06:20:20.495Z,9.57
2024-02-11T06:22:48.974Z,15.88
2024-02-11T06:25:17.338Z,11.30
2024-02-11T06:27:44.110Z,13.05
2024-02-11T06:30:14.543Z,12.32
2024-02-11T06:32:46.957Z,16.47
2024-02-11T06:35:14.989Z,13.68
2024-02-11T06:37:44.155Z,13.27
2024-02-11T06:40:18.995Z,16.25
2024-02-11T06:42:49.361Z,13.48
2024-02-11T06:45:17.911Z,14.20
2024-02-11T06:47:45.127Z,13.70
2024-02-11T06:50:16.596Z,13.48
2024-02-11T06:52:44.969Z,12.93
2024-02-11T06:55:13.272Z,10.15
2024-02-11T06:57:44.232Z,7.23
2024-02-11T07:00:12.260Z,6.03
2024-02-11T07:02:40.375Z,5.50
2024-02-11T07:05:11.362Z,4.15
2024-02-11T07:07:38.519Z,5.55
2024-02-11T07:10:05.676Z,6.13
2024-02-11T07:12:32.242Z,6.57
2024-02-11T07:14:58.855Z,5.10
2024-02-11T07:17:25.775Z,6.80
2024-02-11T07:19:53.996Z,5.95
2024-02-11T07:22:21.178Z,5.27
2024-02-11T07:24:48.614Z,5.60
2024-02-11T07:27:15.770Z,4.40
2024-02-11T07:29:44.048Z,5.07
2024-02-11T07:32:11.819Z,5.13
2024-02-11T07:34:41.050Z,5.20
2024-02-11T07:37:07.895Z,5.50
2024-02-11T07:39:34.475Z,4.03
2024-02-11T07:42:01.990Z,4.57
2024-02-11T07:44:28.782Z,4.60
2024-02-11T07:46:55.257Z,4.63
2024-02-11T07:49:24.919Z,6.28
2024-02-11T07:51:52.536Z,5.50
2024-02-11T07:54:20.414Z,4.82
2024-02-11T07:56:47.384Z,5.97
2024-02-11T07:59:14.092Z,5.73
2024-02-11T08:01:40.927Z,5.72
2024-02-11T08:04:07.776Z,4.90
2024-02-11T08:06:35.574Z,3.92
2024-02-11T08:09:03.610Z,4.43
2024-02-11T08:11:34.427Z,5.73
2024-02-11T08:14:01.028Z,5.68
2024-02-11T08:16:27.816Z,5.75
2024-02-11T08:18:57.735Z,4.63
2024-02-11T08:21:26.540Z,5.22
2024-02-11T08:23:53.273Z,6.33
2024-02-11T08:26:21.633Z,7.57
2024-02-11T08:28:48.328Z,4.80
2024-02-11T08:31:15.137Z,8.15
2024-02-11T08:33:47.377Z,5.78
2024-02-11T08:36:15.150Z,4.87
2024-02-11T08:38:41.830Z,6.88
2024-02-11T08:41:08.895Z,7.45
2024-02-11T08:43:35.643Z,8.27
2024-02-11T08:46:05.341Z,12.25
2024-02-11T08:48:32.950Z,8.57
2024-02-11T08:51:01.513Z,10.65
2024-02-11T08:53:30.160Z,9.73
2024-02-11T08:55:59.535Z,9.73
2024-02-11T08:58:26.691Z,10.73
2024-02-11T09:00:53.605Z,13.47
2024-02-11T09:03:20.226Z,12.52
2024-02-11T09:05:48.031Z,13.45
2024-02-11T09:08:16.739Z,13.15
2024-02-11T09:10:44.573Z,14.82
2024-02-11T09:13:12.044Z,11.57
2024-02-11T09:15:38.936Z,12.98
2024-02-11T09:18:07.351Z,14.82
2024-02-11T09:20:36.892Z,13.45
2024-02-11T09:23:04.292Z,11.48
2024-02-11T09:25:33.115Z,11.73
2024-02-11T09:27:59.786Z,17.13
2024-02-11T09:30:26.542Z,14.60
2024-02-11T09:32:53.276Z,14.93
2024-02-11T09:35:23.704Z,14.68
2024-02-11T09:38:00.327Z,19.10
2024-02-11T09:40:28.005Z,14.23
2024-02-11T09:42:56.943Z,18.23
2024-02-11T09:45:26.044Z,18.17
2024-02-11T09:47:54.161Z,22.40
2024-02-11T09:50:23.418Z,15.40
2024-02-11T09:52:51.399Z,16.60
2024-02-11T09:55:21.964Z,15.60
2024-02-11T09:57:49.255Z,17.55
2024-02-11T10:00:17.262Z,22.85
2024-02-11T10:02:45.791Z,17.70
2024-02-11T10:05:13.523Z,15.93
2024-02-11T10:07:45.466Z,22.15
2024-02-11T10:10:17.136Z,21.05
2024-02-11T10:12:44.453Z,20.58
2024-02-11T10:15:18.190Z,19.17
2024-02-11T10:17:46.370Z,21.42
2024-02-11T10:20:13.938Z,20.58
2024-02-11T10:22:40.745Z,20.52
2024-02-11T10:25:10.375Z,18.25
2024-02-11T10:27:37.656Z,19.07
2024-02-11T10:30:14.048Z,22.40
2024-02-11T10:32:41.241Z,20.35
2024-02-11T10:35:08.328Z,21.52
2024-02-11T10:37:47.360Z,19.15
2024-02-11T10:40:14.653Z,16.47
2024-02-11T10:42:42.630Z,21.63
2024-02-11T10:45:11.211Z,21.80
2024-02-11T10:47:38.270Z,21.77
2024-02-11T10:50:05.097Z,18.23
2024-02-11T10:52:43.866Z,20.17
2024-02-11T10:55:12.291Z,19.63
2024-02-11T10:57:50.433Z,19.80
2024-02-11T11:00:22.187Z,23.40
2024-02-11T11:02:52.117Z,20.90
2024-02-11T11:05:21.449Z,22.07
2024-02-11T11:07:50.427Z,19.92
2024-02-11T11:10:19.637Z,18.70
2024-02-11T11:12:48.028Z,23.60
2024-02-11T11:15:14.750Z,18.05
2024-02-11T11:17:45.671Z,21.90
2024-02-11T11:20:15.431Z,18.10
2024-02-11T11:22:42.003Z,18.50
2024-02-11T11:25:15.325Z,20.10
2024-02-11T11:27:41.879Z,20.15
2024-02-11T11:30:10.675Z,23.20
2024-02-11T11:32:41.921Z,24.88
2024-02-11T11:35:08.946Z,20.73
2024-02-11T11:37:35.480Z,19.67
2024-02-11T11:40:03.357Z,25.13
2024-02-11T11:42:29.913Z,20.13
2024-02-11T11:45:07.297Z,20.17
2024-02-11T11:47:38.319Z,23.60
2024-02-11T11:50:10.086Z,19.85
2024-02-11T11:52:37.016Z,20.95
2024-02-11T11:55:06.381Z,19.70
2024-02-11T11:57:34.450Z,18.75
2024-02-11T12:00:01.871Z,22.15
2024-02-11T12:02:31.030Z,19.95
2024-02-11T12:04:57.888Z,21.55
2024-02-11T12:07:25.653Z,19.27
2024-02-11T12:09:53.208Z,18.65
2024-02-11T12:12:21.168Z,21.17
2024-02-11T12:14:48.154Z,23.27
2024-02-11T12:17:14.842Z,22.65
2024-02-11T12:19:45.392Z,21.77
2024-02-11T12:22:13.097Z,19.85
2024-02-11T12:24:43.115Z,23.27
2024-02-11T12:27:18.305Z,24.25
2024-02-11T12:29:57.879Z,20.45
2024-02-11T12:32:26.462Z,29.00
2024-02-11T12:34:57.536Z,20.83
2024-02-11T12:37:29.520Z,24.85
2024-02-11T12:39:57.715Z,20.15
2024-02-11T12:42:24.222Z,19.52
2024-02-11T12:44:50.782Z,18.60
2024-02-11T12:47:17.364Z,21.35
2024-02-11T12:49:43.894Z,22.45
2024-02-11T12:52:12.566Z,19.70
2024-02-11T12:54:39.870Z,19.00
2024-02-11T12:57:06.535Z,22.93
2024-02-11T12:59:33.121Z,19.70
2024-02-11T13:01:59.720Z,18.38
2024-02-11T13:04:26.835Z,22.45
2024-02-11T13:06:53.541Z,20.42
2024-02-11T13:09:20.038Z,19.53
2024-02-11T13:11:46.550Z,19.90
2024-02-11T13:14:13.481Z,21.42
2024-02-11T13:16:40.027Z,19.15
2024-02-11T13:19:07.514Z,18.92
2024-02-11T13:21:34.370Z,17.70
2024-02-11T13:24:00.872Z,18.83
2024-02-11T13:26:28.216Z,17.05
2024-02-11T13:28:54.917Z,19.80
2024-02-11T13:31:26.372Z,20.33
2024-02-11T13:33:54.671Z,18.63
2024-02-11T13:36:21.324Z,16.92
2024-02-11T13:38:47.782Z,17.60
2024-02-11T13:41:14.401Z,20.33
2024-02-11T13:43:41.027Z,16.95
2024-02-11T13:46:13.586Z,18.10
2024-02-11T13:48:44.454Z,18.15
2024-02-11T13:51:11.739Z,15.48
2024-02-11T13:53:41.164Z,19.10
2024-02-11T13:56:08.181Z,15.85
2024-02-11T13:58:35.712Z,20.00
2024-02-11T14:01:02.547Z,21.55
2024-02-11T14:03:29.071Z,22.40
2024-02-11T14:05:56.165Z,14.98
2024-02-11T14:08:22.885Z,14.75
2024-02-11T14:10:49.465Z,19.00
2024-02-11T14:13:17.616Z,17.63
2024-02-11T14:15:44.576Z,18.23
2024-02-11T14:18:12.459Z,24.30
2024-02-11T14:20:39.287Z,17.52
2024-02-11T14:23:05.937Z,17.47
2024-02-11T14:25:32.886Z,17.83
2024-02-11T14:27:59.425Z,17.08
2024-02-11T14:30:27.858Z,22.50
2024-02-11T14:32:56.632Z,16.65
2024-02-11T14:35:23.480Z,17.80
2024-02-11T14:37:50.193Z,17.83
2024-02-11T14:40:18.390Z,17.08
2024-02-11T14:42:48.293Z,17.90
2024-02-11T14:45:15.891Z,16.10
2024-02-11T14:47:43.934Z,17.60
2024-02-11T14:50:11.186Z,16.05
2024-02-11T14:52:38.094Z,14.82
2024-02-11T14:55:06.133Z,17.95
2024-02-11T14:57:33.893Z,17.73
2024-02-11T15:00:00.337Z,15.00
2024-02-11T15:02:29.787Z,15.45
2024-02-11T15:04:56.927Z,17.02
2024-02-11T15:07:23.685Z,17.15
2024-02-11T15:09:54.600Z,19.45
2024-02-11T15:12:21.145Z,13.73
2024-02-11T15:14:48.235Z,18.85
2024-02-11T15:17:17.601Z,16.67
2024-02-11T15:19:47.214Z,16.48
2024-02-11T15:22:15.245Z,16.35
2024-02-11T15:24:43.314Z,16.60
2024-02-11T15:27:09.809Z,21.10
2024-02-11T15:29:36.416Z,11.30
2024-02-11T15:32:04.030Z,9.05
2024-02-11T15:34:31.007Z,7.97
2024-02-11T15:36:57.838Z,6.27
2024-02-11T15:39:25.137Z,4.43
2024-02-11T15:41:55.489Z,3.78
2024-02-11T15:44:22.813Z,4.30
2024-02-11T15:46:52.850Z,3.92
2024-02-11T15:49:19.432Z,4.63
2024-02-11T15:51:49.302Z,7.47
2024-02-11T15:54:16.322Z,5.57
2024-02-11T15:56:43.509Z,4.03
2024-02-11T15:59:10.612Z,4.90
2024-02-11T16:01:37.315Z,7.37
2024-02-11T16:04:05.693Z,4.70
2024-02-11T16:06:33.238Z,5.10
2024-02-11T16:08:59.944Z,4.43
2024-02-11T16:11:27.244Z,6.55
2024-02-11T16:13:53.908Z,5.67
2024-02-11T16:16:20.457Z,7.95
2024-02-11T16:18:47.143Z,5.07
2024-02-11T16:21:15.203Z,2.95
2024-02-11T16:23:42.237Z,4.53
2024-02-11T16:26:16.934Z,4.23
2024-02-11T16:28:44.582Z,4.70
2024-02-11T16:31:14.731Z,5.93
2024-02-11T16:33:41.591Z,4.45
2024-02-11T16:36:09.880Z,4.18
2024-02-11T16:38:36.778Z,5.33
2024-02-11T16:41:03.445Z,4.82
2024-02-11T16:43:29.898Z,4.85
2024-02-11T16:45:56.414Z,4.82
2024-02-11T16:48:24.185Z,4.05
2024-02-11T16:50:51.190Z,6.97
2024-02-11T16:53:17.904Z,7.50
2024-02-11T16:55:44.757Z,7.50
2024-02-11T16:58:11.656Z,6.50
2024-02-11T17:00:38.298Z,5.50
2024-02-11T17:03:05.847Z,5.97
2024-02-11T17:05:32.669Z,6.72
2024-02-11T17:07:59.302Z,6.05
2024-02-11T17:10:26.176Z,6.28
2024-02-11T17:12:52.707Z,7.18
2024-02-11T17:15:19.194Z,7.80
2024-02-11T17:17:45.737Z,9.30
2024-02-11T17:20:17.390Z,8.23
2024-02-11T17:22:44.939Z,7.13
2024-02-11T17:25:11.640Z,5.78
2024-02-11T17:27:39.065Z,10.77
2024-02-11T17:30:07.595Z,12.05
2024-02-11T17:32:42.682Z,18.33
2024-02-11T17:35:16.242Z,20.92
2024-02-11T17:37:43.071Z,20.48
2024-02-11T17:40:11.543Z,15.73
2024-02-11T17:42:39.968Z,12.90
2024-02-11T17:45:13.643Z,13.93
2024-02-11T17:47:43.582Z,12.02
2024-02-11T17:50:15.941Z,11.10
2024-02-11T17:52:43.120Z,14.73
2024-02-11T17:55:10.613Z,14.70
2024-02-11T17:57:47.357Z,26.73
2024-02-11T18:00:19.055Z,24.67
2024-02-11T18:02:45.688Z,23.83
2024-02-11T18:05:13.738Z,18.53
2024-02-11T18:07:44.553Z,16.83
2024-02-11T18:10:12.818Z,9.63
2024-02-11T18:12:44.489Z,9.02
2024-02-11T18:15:13.401Z,11.43
2024-02-11T18:17:42.100Z,14.50
2024-02-11T18:20:09.340Z,9.60
2024-02-11T18:22:36.551Z,8.88
2024-02-11T18:25:03.112Z,9.55
2024-02-11T18:27:29.605Z,12.27
2024-02-11T18:29:56.066Z,10.90
2024-02-11T18:32:22.896Z,10.55
2024-02-11T18:34:50.667Z,9.95
2024-02-11T18:37:20.442Z,12.05
2024-02-11T18:39:48.614Z,12.60
2024-02-11T18:42:19.083Z,13.13
2024-02-11T18:44:46.595Z,11.05
2024-02-11T18:47:16.455Z,14.82
2024-02-11T18:49:43.134Z,18.80
2024-02-11T18:52:09.947Z,16.33
2024-02-11T18:54:40.343Z,18.87
2024-02-11T18:57:14.255Z,17.35
2024-02-11T18:59:45.460Z,14.15
2024-02-11T19:02:13.177Z,13.57
2024-02-11T19:04:40.306Z,15.02
2024-02-11T19:07:07.354Z,16.27
2024-02-11T19:09:40.856Z,16.38
2024-02-11T19:12:09.649Z,14.35
2024-02-11T19:14:36.099Z,16.95
2024-02-11T19:17:04.462Z,16.45
2024-02-11T19:19:31.077Z,28.10
2024-02-11T19:22:04.331Z,13.15
2024-02-11T19:24:39.386Z,13.50
2024-02-11T19:27:05.892Z,15.25
2024-02-11T19:29:33.069Z,19.80
2024-02-11T19:31:59.523Z,15.73
2024-02-11T19:34:25.984Z,18.10
2024-02-11T19:36:52.424Z,13.88
2024-02-11T19:39:18.992Z,17.95
2024-02-11T19:41:45.920Z,17.45
2024-02-11T19:44:12.526Z,16.20
2024-02-11T19:46:40.408Z,12.25
2024-02-11T19:49:10.287Z,10.93
2024-02-11T19:51:36.823Z,14.15
2024-02-11T19:54:04.016Z,12.80
2024-02-11T19:56:30.615Z,12.83
2024-02-11T19:58:57.947Z,14.00
2024-02-11T20:01:25.793Z,14.93
2024-02-11T20:03:52.261Z,16.50
2024-02-11T20:06:18.864Z,12.68
2024-02-11T20:08:47.895Z,11.93
2024-02-11T20:11:15.650Z,13.82
2024-02-11T20:13:42.153Z,15.02
2024-02-11T20:16:13.910Z,11.75
2024-02-11T20:18:43.366Z,12.88
2024-02-11T20:21:10.668Z,13.53
2024-02-11T20:23:38.251Z,13.35
2024-02-11T20:26:05.588Z,12.32
2024-02-11T20:28:34.143Z,13.52
2024-02-11T20:31:00.889Z,12.15
2024-02-11T20:33:27.587Z,13.93
2024-02-11T20:35:55.202Z,13.77
2024-02-11T20:38:23.243Z,12.07
2024-02-11T20:40:54.391Z,11.68
2024-02-11T20:43:21.781Z,11.80
2024-02-11T20:45:50.549Z,11.00
2024-02-11T20:48:19.056Z,11.32
2024-02-11T20:50:45.781Z,10.75
2024-02-11T20:53:12.371Z,13.73
2024-02-11T20:55:39.029Z,13.07
2024-02-11T20:58:05.902Z,15.83
2024-02-11T21:00:36.312Z,15.95
2024-02-11T21:03:08.987Z,14.02
2024-02-11T21:05:36.802Z,15.27
2024-02-11T21:08:04.430Z,16.10
2024-02-11T21:10:34.031Z,13.47
2024-02-11T21:13:01.205Z,14.88
2024-02-11T21:15:27.813Z,15.23
2024-02-11T21:17:57.387Z,14.77
2024-02-11T21:20:29.606Z,15.38
2024-02-11T21:22:56.533Z,13.67
2024-02-11T21:25:24.312Z,13.63
2024-02-11T21:27:57.600Z,13.77
2024-02-11T21:30:26.424Z,13.80
2024-02-11T21:32:53.224Z,13.65
2024-02-11T21:35:20.433Z,13.47
2024-02-11T21:37:49.004Z,16.23
2024-02-11T21:40:15.901Z,13.30
2024-02-11T21:42:43.375Z,11.23
2024-02-11T21:45:11.361Z,11.57
2024-02-11T21:47:43.191Z,12.93
2024-02-11T21:50:13.781Z,14.70
2024-02-11T21:52:45.852Z,13.35
2024-02-11T21:55:13.865Z,17.27
2024-02-11T21:57:43.846Z,12.27
2024-02-11T22:00:12.159Z,14.57
2024-02-11T22:02:40.488Z,12.98
2024-02-11T22:05:08.271Z,13.95
2024-02-11T22:07:39.526Z,12.77
2024-02-11T22:10:10.578Z,12.98
2024-02-11T22:12:38.242Z,14.83
2024-02-11T22:15:07.885Z,12.23
2024-02-11T22:17:35.852Z,15.23
2024-02-11T22:20:02.908Z,12.63
2024-02-11T22:22:29.432Z,13.63
2024-02-11T22:24:57.064Z,11.47
2024-02-11T22:27:23.626Z,13.43
2024-02-11T22:29:51.296Z,12.18
2024-02-11T22:32:17.781Z,12.95
2024-02-11T22:34:44.618Z,12.95
2024-02-11T22:37:13.351Z,13.40
2024-02-11T22:39:40.082Z,15.40
2024-02-11T22:42:09.138Z,15.27
2024-02-11T22:44:36.344Z,12.60
2024-02-11T22:47:05.902Z,14.45
2024-02-11T22:49:32.345Z,13.57
2024-02-11T22:51:59.175Z,15.32
2024-02-11T22:54:25.953Z,15.25
2024-02-11T22:56:53.133Z,14.00
2024-02-11T22:59:19.652Z,14.85
2024-02-11T23:01:46.173Z,17.73
2024-02-11T23:04:13.959Z,13.73
2024-02-11T23:06:42.600Z,19.13
2024-02-11T23:09:09.535Z,14.80
2024-02-11T23:11:36.350Z,13.27
2024-02-11T23:14:03.815Z,14.27
2024-02-11T23:16:33.309Z,16.65
2024-02-11T23:19:00.551Z,16.10
2024-02-11T23:21:27.440Z,12.15
2024-02-11T23:23:54.660Z,13.88
2024-02-11T23:26:21.202Z,13.07
2024-02-11T23:28:47.782Z,13.52
2024-02-11T23:31:14.229Z,15.40
2024-02-11T23:33:42.557Z,15.70
2024-02-11T23:36:14.359Z,19.05
2024-02-11T23:38:44.038Z,19.73
2024-02-11T23:41:10.658Z,16.88
2024-02-11T23:43:37.111Z,15.23
2024-02-11T23:46:03.874Z,14.43
2024-02-11T23:48:30.458Z,13.98
2024-02-11T23:51:00.696Z,12.90
2024-02-11T23:53:30.307Z,15.88
2024-02-11T23:55:58.949Z,15.02
2024-02-11T23:58:27.370Z,15.63
